Extreme weather reports worldwide

Low visibility

Station
 
Location
 
Name
 
Wind
Knots
Gust
Knots
Vis
SM
Temp/Dew
C
Baro
inHg
METAR
 
KMWN 22 30 0 10/10 KMWN 280547Z 21022G30KT 0SM -RA FG VV000 10/10 RMK 60095 10096 20083
LIVR 2 0 5/4 30.15 LIVR 280455Z 08002KT 0000 FG VV/// 05/04 Q1021 RMK MON INVIS VIS MIN 0000
LIVP 5 0 4/4 30.09 LIVP 280455Z 19005KT 0000 -RA FG VV/// 04/04 Q1019 RMK MON INVIS VAL IMVIS VIS MIN 0000
MVB FOON Franceville, GA M'Vengue El Hadj Omar Bongo Ondimba International Airport 0.06 23/23 29.97 FOON 280500Z /////KT 0100 FG BKN002 23/23 Q1015
GCI EGJB Saint Peter Port, GG Guernsey Airport 17 0.09 13/13 29.97 EGJB 280550Z 24017KT 0150 R27/0250N -DZ FG BKN000 13/13 Q1015

Station
 
Location
 
Name
 
Wind
Knots
Gust
Knots
Vis
SM
Temp/Dew
C
Baro
inHg
METAR
 
CPT FACT Cape Town, ZA Cape Town International Airport 2 0.12 9/9 30.06 FACT 280600Z 10002KT 0200 R01/0075 FG NSC 09/09 Q1018 NOSIG
AUR LFLW Aurillac, FR Aurillac Airport 3 0.16 8/8 30.21 LFLW 280600Z AUTO VRB03KT 0250 R15/0325N FG VV/// 08/08 Q1023 TEMPO 0400 FG
FSP LFVP Saint-Pierre, PM St Pierre Airport 3 0.22 5/5 30.30 LFVP 280600Z AUTO 23003KT 0350 R26/0400N FG VV/// 05/05 Q1026
SFZ KSFZ Pawtucket, US North Central State Airport 4 0.25 18/18 29.70 KSFZ 280603Z AUTO VRB04KT 1/4SM FG OVC003 18/18 A2970 RMK AO2 $
WSN PFWS South Naknek, US South Naknek Nr 2 Airport 8 0.25 3/3 29.87 PFWS 280556Z AUTO 26008KT 1/4SM FG OVC002 04/04 A2987 RMK AO2 SLP157 T00390039 10111 20039 56004
NLG PAOU Nelson Lagoon, US Nelson Lagoon Airport 5 0.25 2/1 29.80 PAOU 280556Z AUTO 10005KT 1/4SM -RA FG OVC002 03/02 A2980 RMK AO2 UPB16E21RAB21 SLP090 6//// T00280017 10028 20022 56019 PNO $
EGX PAII Egegik, US Egegik Airport 3 0.25 3/2 29.87 PAII 280556Z AUTO 33003KT 1/4SM FG OVC002 03/03 A2987 RMK AO2 SLP114 T00330028 10078 20033 58007
PAAD Deadhorse, US Point Thomson Airstrip 3 0.25 -1/-2 29.91 PAAD 280555Z AUTO 09003KT 1/4SM FZFG OVC004 M01/M02 A2991 RMK AO2 T10111021 10017 21011
SME KSME Somerset, US Lake Cumberland Regional Airport 0 0.25 17/17 29.97 KSME 280555Z AUTO 00000KT 1/4SM FG VV002 17/17 A2997 RMK AO2 P0001
LVL KLVL Lawrenceville, US Brunswick Municipal Airport 0 0.25 22/19 29.84 KLVL 280555Z AUTO 00000KT M1/4SM VV000 22/20 A2984 RMK AO1 T02220196 10245 20222
KJVW 0 0.25 / 30.02 KJVW 280555Z AUTO 00000KT 1/4SM FZFG VV002 A3002 RMK AO2
KI35 0 0.25 18/18 29.99 KI35 280555Z AUTO 00000KT 1/4SM OVC002 19/19 A2999 RMK AO2 60020 T01880188 10252 20185
K18A 0 0.25 19/19 29.96 K18A 280555Z AUTO 00000KT M1/4SM FG OVC001 20/20 A2996 RMK AO2 T01990196 10261 20197
AVX KAVX Avalon, US Catalina Airport 3 0.25 10/10 30.05 KAVX 280551Z AUTO VRB03KT M1/4SM FG VV001 10/10 A3005 RMK AO2 SLP174 T01000100 10150 20100 50005 $
YHZ CYHZ Halifax, CA Halifax / Stanfield International Airport 13 21 0.25 10/10 30.12 CYHZ 280500Z 14013G21KT 1/4SM R23/2200V2600FT/N R14/2600V3000FT/N -RA FG VV002 10/10 A3012 RMK FG8 SLP205
CPO SCAT Copiapo, CL Desierto de Atacama Airport 2 0.4 10/10 30.00 SCAT 280600Z AUTO VRB02KT 0650 R17/0750N -RA FG VV001 10/10 Q1016
VIT LEVT Alava, ES Vitoria/Foronda Airport 2 0.43 6/6 30.21 LEVT 280600Z VRB02KT 0700 R04/1400D R22/0700N PRFG OVC002 06/06 Q1023
IPN SBIP Ipatinga, BR Usiminas Airport 0 0.43 17/14 30.09 SBIP 280503Z AUTO 00000KT 0700 FG VV001 17/14 Q1019
CLP PFCL Clarks Point, US Clarks Point Airport 7 0.5 3/ 29.84 PFCL 280604Z AUTO 15007KT 1/2SM FG OVC001 03/ A2984 RMK AO2 TSNO
OXC KOXC Oxford, US Waterbury Oxford Airport 4 0.5 18/18 29.70 KOXC 280556Z AUTO 26004KT 1/2SM FG OVC002 18/18 A2970 RMK AO2 SLPNO 60006 T01830183 10189 20183 56018
LGC KLGC Lagrange, US LaGrange Callaway Airport 0 0.5 18/17 30.00 KLGC 280555Z AUTO 00000KT 1/2SM FG OVC002 18/18 A3000 RMK AO2 T01810175 10256 20180 403110180
K49A 0 0.5 17/17 30.01 K49A 280555Z AUTO 00000KT 1/2SM FG VV005 17/17 A3001 RMK AO2
JKG ESGJ Jönköping, SE Jönköping Airport 0 0.5 14/14 29.97 ESGJ 280550Z 00000KT 0800 R01/1200N R19/P1500N OVC002 14/14 Q1015
COK VOCI Kochi, IN Cochin International Airport 3 0.5 26/26 29.79 VOCI 280530Z 29003KT 0800 R09/1300 +RA SCT006 SCT012 FEW025CB OVC080 26/26 Q1009 TEMPO 0500 +RA
JER EGJJ Saint Helier, JE Jersey Airport 17 0.56 14/14 30.00 EGJJ 280550Z 24017KT 0900 R26/P2000N -DZ FG FEW000 BKN001 14/14 Q1016
ZCO SCQP Temuco, CL La Araucanía Airport 0 0.68 4/4 30.03 SCQP 280600Z AUTO 00000KT 1100 1000 R01/0800V1400 FG VV003 04/04 Q1017
SBLB Macaé, BR Plataforma P-25 Helipad 29 0.68 28/ 30.03 SBLB 280504Z AUTO 08029KT 1100 +SHRA OVC012 ///// Q1017 W28/S5
TNM SCRM Isla Rey Jorge, AQ Teniente Rodolfo Marsh Martin Base 18 0.75 -1/-1 29.26 SCRM 280600Z 31018KT 1200 BR OVC003 M01/M01 Q0991 NOSIG
KF44 0 0.75 26/25 29.98 KF44 280555Z AUTO 00000KT 3/4SM BR VV005 26/25 A2998 RMK AO2
KSMQ Somerville, US Somerset Airport 0 0.75 20/20 29.66 KSMQ 280553Z AUTO 00000KT 3/4SM BR OVC013 20/20 A2966 RMK AO2 SLP044 T02000200 10222 20200 58008
EGVP Middle Wallop, GB Middle Wallop Airfield 8 0.75 13/12 29.88 EGVP 280550Z 16008KT 1200 RADZ OVC002 13/12 Q1012 RMK AMB
KUL WMKK Kuala Lumpur, MY Kuala Lumpur International Airport 3 0.75 25/25 29.82 WMKK 280530Z VRB03KT 1200 +TSRA SCT002 FEW016CB SCT018 25/25 Q1010 TEMPO FM0600 14008G20KT 4000 TSRA
GAU VEGT Guwahati, IN Lokpriya Gopinath Bordoloi International Airport 10 20 0.93 28/27 29.38 VEGT 280600Z 30010G20KT 1500 R02/1800 RA FEW008 SCT016 FEW025CB OVC080 28/27 Q0995 NOSIG
LIPF Ferrara, IT Ferrara Airport 3 0.93 20/19 29.97 LIPF 280555Z 20003KT 1500 BR SCT030 SCT070 20/19 Q1015
KSD ESOK Karlstad, SE Karlstad Airport 3 0.93 14/14 30.00 ESOK 280550Z 08003KT 030V120 1500 R03/P1500N R21/P1500N BR VV002 14/14 Q1016
EUF KEUF Eufaula, US Weedon Field 0 1 21/20 29.99 KEUF 280558Z AUTO 00000KT 1SM BR OVC002 22/21 A2999 RMK AO2 SLP151 60057 T02170206 10239 20211 403110211 50001
KSNC Chester, US Chester Airport 4 1 19/19 29.68 KSNC 280555Z AUTO VRB04KT 1SM BR OVC001 19/19 A2968 RMK AO2
K2J9 3 14 1 21/21 30.03 K2J9 280555Z AUTO VRB03G14KT 1SM +TSRA BKN003 BKN010 OVC018 21/21 A3003 RMK AO2 LTG DSNT ALQDS
SBN KSBN South Bend, US South Bend Regional Airport 0 1 12/11 29.86 KSBN 280554Z AUTO 00000KT 1SM R27L/P6000FT BR CLR 12/12 A2986 RMK AO2 SLP112 60001 T01220117 10189 20122 55002
KNSI San Nicolas Island, US San Nicolas Island Nolf Airport 12 1 11/10 30.05 KNSI 280553Z AUTO 31012KT 1SM BR VV002 11/10 A3005 RMK AO2 SLP173 T01110100 10144 20106 50005 $
CCJ VOCL Calicut, IN Calicut International Airport 13 1.24 25/24 29.79 VOCL 280600Z 26013KT 2000 -RA SCT004 SCT012 FEW025CB BKN080 25/24 Q1009 TEMPO 1500 TSRA
SHL VEBI Shillong, IN Shillong Airport 6 1.24 24/23 29.44 VEBI 280600Z 06006KT 2000 -RA FEW006 BKN020 FEW025CB OVC080 24/23 Q0997 NOSIG
MCZ SBMO Maceió, BR Zumbi dos Palmares Airport 5 1.24 24/23 29.97 SBMO 280600Z 21005KT 2000 RA BR BKN007 BKN015 24/23 Q1015
EZE SAEZ Buenos Aires, AR Ministro Pistarini International Airport 4 1.24 8/8 30.30 SAEZ 280600Z 18004KT 2000 -DZ BR OVC002 08/08 Q1026 NOSIG
ITM RJOO Osaka, JP Osaka International Airport 19 1.24 16/15 29.38 RJOO 280600Z 34019KT 2000 R32L/1400VP2000D +SHRA BR FEW002 SCT008 BKN015 16/15 Q0995